createdAt,value
2023-05-08T00:00:26.786Z,80.69
2023-05-08T00:01:49.618Z,80.69
2023-05-08T00:02:52.576Z,80.69
2023-05-08T00:03:55.677Z,80.68
2023-05-08T00:04:58.758Z,80.65
2023-05-08T00:06:05.904Z,80.64
2023-05-08T00:07:08.812Z,80.64
2023-05-08T00:08:11.871Z,80.64
2023-05-08T00:09:15.070Z,80.75
2023-05-08T00:10:17.963Z,80.82
2023-05-08T00:11:21.090Z,80.71
2023-05-08T00:12:24.272Z,80.83
2023-05-08T00:13:27.301Z,80.74
2023-05-08T00:14:30.222Z,80.69
2023-05-08T00:15:33.100Z,80.62
2023-05-08T00:16:35.988Z,80.79
2023-05-08T00:17:39.973Z,80.70
2023-05-08T00:18:43.477Z,80.62
2023-05-08T00:19:46.311Z,80.61
2023-05-08T00:20:49.146Z,80.62
2023-05-08T00:21:52.530Z,80.62
2023-05-08T00:22:56.013Z,80.57
2023-05-08T00:23:58.890Z,80.72
2023-05-08T00:25:02.007Z,80.76
2023-05-08T00:26:04.969Z,80.80
2023-05-08T00:27:10.732Z,80.78
2023-05-08T00:28:13.811Z,80.69
2023-05-08T00:29:16.689Z,80.73
2023-05-08T00:30:19.808Z,80.78
2023-05-08T00:31:24.137Z,80.77
2023-05-08T00:32:27.567Z,80.85
2023-05-08T00:33:30.620Z,80.82
2023-05-08T00:34:33.767Z,80.75
2023-05-08T00:35:36.628Z,80.74
2023-05-08T00:36:39.840Z,80.64
2023-05-08T00:37:43.945Z,80.63
2023-05-08T00:38:47.417Z,80.77
2023-05-08T00:39:50.750Z,80.77
2023-05-08T00:40:53.675Z,80.81
2023-05-08T00:41:56.744Z,81.00
2023-05-08T00:42:59.517Z,80.97
2023-05-08T00:44:02.347Z,80.95
2023-05-08T00:45:05.751Z,80.94
2023-05-08T00:46:10.058Z,80.91
2023-05-08T00:47:13.056Z,81.11
2023-05-08T00:48:16.100Z,81.03
2023-05-08T00:49:19.417Z,81.01
2023-05-08T00:50:22.256Z,80.87
2023-05-08T00:51:25.294Z,80.85
2023-05-08T00:52:30.908Z,80.95
2023-05-08T00:53:37.690Z,80.99
2023-05-08T00:54:40.897Z,81.04
2023-05-08T00:55:44.121Z,80.92
2023-05-08T00:56:47.344Z,80.88
2023-05-08T00:57:51.122Z,80.98
2023-05-08T00:58:54.202Z,80.96
2023-05-08T00:59:57.249Z,80.97
2023-05-08T01:01:00.919Z,81.04
2023-05-08T01:02:04.242Z,81.13
2023-05-08T01:03:09.390Z,81.04
2023-05-08T01:04:12.766Z,81.12
2023-05-08T01:05:15.654Z,81.25
2023-05-08T01:06:18.557Z,81.05
2023-05-08T01:07:21.405Z,81.10
2023-05-08T01:08:25.666Z,81.08
2023-05-08T01:09:28.851Z,81.12
2023-05-08T01:11:13.326Z,81.16
2023-05-08T01:12:43.235Z,81.10
2023-05-08T01:13:57.839Z,81.01
2023-05-08T01:15:11.672Z,81.01
2023-05-08T01:16:17.900Z,81.07
2023-05-08T01:17:58.922Z,81.16
2023-05-08T01:19:24.383Z,81.22
2023-05-08T01:20:49.019Z,81.31
2023-05-08T01:22:00.673Z,81.31
2023-05-08T01:23:28.367Z,81.32
2023-05-08T01:25:02.365Z,81.21
2023-05-08T01:26:30.026Z,81.21
2023-05-08T01:27:35.686Z,81.06
2023-05-08T01:29:09.473Z,80.98
2023-05-08T01:30:32.188Z,81.15
2023-05-08T01:32:02.494Z,81.14
2023-05-08T01:33:14.524Z,81.28
2023-05-08T01:34:23.237Z,81.18
2023-05-08T01:36:00.744Z,81.19
2023-05-08T01:37:09.755Z,81.19
2023-05-08T01:38:22.963Z,81.30
2023-05-08T01:39:44.176Z,81.21
2023-05-08T01:40:56.984Z,81.24
2023-05-08T01:42:18.654Z,81.25
2023-05-08T01:43:46.089Z,81.40
2023-05-08T01:44:53.935Z,81.52
2023-05-08T01:45:59.434Z,81.52
2023-05-08T01:47:07.010Z,81.45
2023-05-08T01:48:13.581Z,81.56
2023-05-08T01:49:27.787Z,81.39
2023-05-08T01:50:46.878Z,81.46
2023-05-08T01:51:57.907Z,81.44
2023-05-08T01:53:09.617Z,81.53
2023-05-08T01:54:16.716Z,81.52
2023-05-08T01:55:30.682Z,81.51
2023-05-08T01:56:36.684Z,81.51
2023-05-08T01:57:47.124Z,81.47
2023-05-08T01:58:54.388Z,81.55
2023-05-08T02:00:01.263Z,81.53
2023-05-08T02:01:04.847Z,81.61
2023-05-08T02:02:09.640Z,81.78
2023-05-08T02:03:15.800Z,81.74
2023-05-08T02:04:20.056Z,81.60
2023-05-08T02:05:24.736Z,81.59
2023-05-08T02:06:31.679Z,81.63
2023-05-08T02:07:38.265Z,81.56
2023-05-08T02:08:42.620Z,81.47
2023-05-08T02:09:50.279Z,81.33
2023-05-08T02:10:54.201Z,81.19
2023-05-08T02:11:59.247Z,81.34
2023-05-08T02:13:04.454Z,81.48
2023-05-08T02:14:08.910Z,81.38
2023-05-08T02:15:15.113Z,81.47
2023-05-08T02:16:19.308Z,81.55
2023-05-08T02:17:22.344Z,81.53
2023-05-08T02:18:28.537Z,81.50
2023-05-08T02:19:33.554Z,81.51
2023-05-08T02:20:38.733Z,81.62
2023-05-08T02:21:44.067Z,81.59
2023-05-08T02:22:51.475Z,81.58
2023-05-08T02:23:57.369Z,81.63
2023-05-08T02:25:01.337Z,81.66
2023-05-08T02:26:04.983Z,81.62
2023-05-08T02:27:10.086Z,81.59
2023-05-08T02:28:13.511Z,81.56
2023-05-08T02:29:17.406Z,81.62
2023-05-08T02:30:24.551Z,81.65
2023-05-08T02:31:29.640Z,81.60
2023-05-08T02:32:34.812Z,81.66
2023-05-08T02:33:41.719Z,81.66
2023-05-08T02:34:58.823Z,81.62
2023-05-08T02:36:07.442Z,81.69
2023-05-08T02:37:10.770Z,81.75
2023-05-08T02:38:15.862Z,81.62
2023-05-08T02:39:21.579Z,81.66
2023-05-08T02:40:27.789Z,81.79
2023-05-08T02:41:33.915Z,81.78
2023-05-08T02:42:37.652Z,81.80
2023-05-08T02:43:40.806Z,81.69
2023-05-08T02:44:43.845Z,81.86
2023-05-08T02:46:12.750Z,81.76
2023-05-08T02:47:23.234Z,81.90
2023-05-08T02:48:55.028Z,81.96
2023-05-08T02:50:09.895Z,81.93
2023-05-08T02:51:24.383Z,82.00
2023-05-08T02:52:43.034Z,81.96
2023-05-08T02:53:52.229Z,81.95
2023-05-08T02:54:55.175Z,81.76
2023-05-08T02:56:08.998Z,81.78
2023-05-08T02:57:23.000Z,81.81
2023-05-08T02:58:35.041Z,81.84
2023-05-08T02:59:45.527Z,81.98
2023-05-08T03:01:08.429Z,81.89
2023-05-08T03:02:38.098Z,82.11
2023-05-08T03:03:45.438Z,82.19
2023-05-08T03:04:57.226Z,82.00
2023-05-08T03:06:03.501Z,82.02
2023-05-08T03:07:06.619Z,81.96
2023-05-08T03:08:16.326Z,81.99
2023-05-08T03:09:23.120Z,82.15
2023-05-08T03:10:31.912Z,82.09
2023-05-08T03:11:41.278Z,82.16
2023-05-08T03:12:48.776Z,82.07
2023-05-08T03:13:59.069Z,82.23
2023-05-08T03:15:11.295Z,82.44
2023-05-08T03:16:21.170Z,82.31
2023-05-08T03:17:25.551Z,82.35
2023-05-08T03:18:36.468Z,82.32
2023-05-08T03:19:44.300Z,82.26
2023-05-08T03:20:52.912Z,82.43
2023-05-08T03:21:58.124Z,82.36
2023-05-08T03:23:03.380Z,82.37
2023-05-08T03:24:09.235Z,82.24
2023-05-08T03:25:14.425Z,82.21
2023-05-08T03:26:22.425Z,82.38
2023-05-08T03:27:26.837Z,82.36
2023-05-08T03:28:31.944Z,82.37
2023-05-08T03:29:38.603Z,82.35
2023-05-08T03:30:42.307Z,82.39
2023-05-08T03:31:50.485Z,82.48
2023-05-08T03:32:55.210Z,82.53
2023-05-08T03:33:59.120Z,82.57
2023-05-08T03:35:04.404Z,82.66
2023-05-08T03:36:08.406Z,82.55
2023-05-08T03:37:11.669Z,82.53
2023-05-08T03:38:16.412Z,82.58
2023-05-08T03:39:19.459Z,82.61
2023-05-08T03:40:22.506Z,82.48
2023-05-08T03:41:26.484Z,82.41
2023-05-08T03:42:31.607Z,82.46
2023-05-08T03:43:37.119Z,82.32
2023-05-08T03:44:40.066Z,82.40
2023-05-08T03:45:44.246Z,82.25
2023-05-08T03:46:48.964Z,82.22
2023-05-08T03:47:53.963Z,82.18
2023-05-08T03:49:00.425Z,82.21
2023-05-08T03:50:03.909Z,82.26
2023-05-08T03:51:06.983Z,82.22
2023-05-08T03:52:13.289Z,82.29
2023-05-08T03:53:16.646Z,82.32
2023-05-08T03:54:19.575Z,82.37
2023-05-08T03:55:22.932Z,82.44
2023-05-08T03:56:26.275Z,82.58
2023-05-08T03:57:51.214Z,82.55
2023-05-08T03:59:17.035Z,82.53
2023-05-08T04:00:32.088Z,82.59
2023-05-08T04:01:51.655Z,82.62
2023-05-08T04:03:11.105Z,82.57
2023-05-08T04:04:47.448Z,82.49
2023-05-08T04:06:08.006Z,82.51
2023-05-08T04:07:38.504Z,82.53
2023-05-08T04:08:49.079Z,82.36
2023-05-08T04:10:00.566Z,82.24
2023-05-08T04:11:15.836Z,82.38
2023-05-08T04:12:22.979Z,82.52
2023-05-08T04:13:31.451Z,82.58
2023-05-08T04:14:44.207Z,82.49
2023-05-08T04:16:00.572Z,82.62
2023-05-08T04:17:10.083Z,82.66
2023-05-08T04:18:19.062Z,82.88
2023-05-08T04:19:30.120Z,82.90
2023-05-08T04:20:34.168Z,82.97
2023-05-08T04:21:42.450Z,83.03
2023-05-08T04:22:48.401Z,83.10
2023-05-08T04:23:56.315Z,83.25
2023-05-08T04:25:02.996Z,83.38
2023-05-08T04:26:07.985Z,83.44
2023-05-08T04:27:12.154Z,83.35
2023-05-08T04:28:16.955Z,83.37
2023-05-08T04:29:20.974Z,83.36
2023-05-08T04:30:25.720Z,83.41
2023-05-08T04:31:30.660Z,83.32
2023-05-08T04:32:35.226Z,83.20
2023-05-08T04:33:39.281Z,83.16
2023-05-08T04:34:42.552Z,83.20
2023-05-08T04:35:46.408Z,83.22
2023-05-08T04:36:49.682Z,83.06
2023-05-08T04:37:53.668Z,83.07
2023-05-08T04:38:57.130Z,83.13
2023-05-08T04:40:01.348Z,83.37
2023-05-08T04:41:05.565Z,83.26
2023-05-08T04:42:08.520Z,83.19
2023-05-08T04:43:11.698Z,83.30
2023-05-08T04:44:14.871Z,83.31
2023-05-08T04:45:18.113Z,83.45
2023-05-08T04:46:21.292Z,83.53
2023-05-08T04:47:24.507Z,83.71
2023-05-08T04:48:27.639Z,83.68
2023-05-08T04:49:30.684Z,83.67
2023-05-08T04:50:34.121Z,83.68
2023-05-08T04:51:37.236Z,83.60
2023-05-08T04:52:40.666Z,83.55
2023-05-08T04:53:43.801Z,83.63
2023-05-08T04:54:47.061Z,83.68
2023-05-08T04:55:50.511Z,83.70
2023-05-08T04:56:53.489Z,83.79
2023-05-08T04:57:56.547Z,83.82
2023-05-08T04:58:59.446Z,83.84
2023-05-08T05:00:02.587Z,83.90
2023-05-08T05:01:06.346Z,83.93
2023-05-08T05:02:09.802Z,83.90
2023-05-08T05:03:13.107Z,83.83
2023-05-08T05:04:16.249Z,83.89
2023-05-08T05:05:19.506Z,83.75
2023-05-08T05:06:22.913Z,83.80
2023-05-08T05:07:26.182Z,83.92
2023-05-08T05:08:29.318Z,84.01
2023-05-08T05:09:37.068Z,84.05
2023-05-08T05:10:44.291Z,84.14
2023-05-08T05:11:47.256Z,84.08
2023-05-08T05:12:50.996Z,84.04
2023-05-08T05:13:54.355Z,84.03
2023-05-08T05:14:57.731Z,84.10
2023-05-08T05:16:01.097Z,84.22
2023-05-08T05:17:04.669Z,84.23
2023-05-08T05:18:07.707Z,84.33
2023-05-08T05:19:10.685Z,84.17
2023-05-08T05:20:14.231Z,84.16
2023-05-08T05:21:17.250Z,84.20
2023-05-08T05:22:20.400Z,84.10
2023-05-08T05:23:23.398Z,84.11
2023-05-08T05:24:26.324Z,84.11
2023-05-08T05:25:29.196Z,83.77
2023-05-08T05:26:32.205Z,83.91
2023-05-08T05:27:36.955Z,83.96
2023-05-08T05:28:40.192Z,83.64
2023-05-08T05:29:43.422Z,83.70
2023-05-08T05:30:49.441Z,83.66
2023-05-08T05:31:52.995Z,83.61
2023-05-08T05:32:56.325Z,83.54
2023-05-08T05:33:59.516Z,83.67
2023-05-08T05:35:06.356Z,83.50
2023-05-08T05:36:09.437Z,83.47
2023-05-08T05:37:12.549Z,83.07
2023-05-08T05:38:15.533Z,83.22
2023-05-08T05:39:18.766Z,83.28
2023-05-08T05:40:21.801Z,83.47
2023-05-08T05:41:24.743Z,83.16
2023-05-08T05:42:27.779Z,82.83
2023-05-08T05:43:31.015Z,82.59
2023-05-08T05:44:33.899Z,82.42
2023-05-08T05:45:37.090Z,82.29
2023-05-08T05:46:42.719Z,82.30
2023-05-08T05:47:50.060Z,82.31
2023-05-08T05:48:54.305Z,82.28
2023-05-08T05:49:58.084Z,82.15
2023-05-08T05:51:03.685Z,82.34
2023-05-08T05:52:06.734Z,82.13
2023-05-08T05:53:10.087Z,82.06
2023-05-08T05:54:14.597Z,81.96
2023-05-08T05:55:17.646Z,82.00
2023-05-08T05:56:23.626Z,81.49
2023-05-08T05:57:26.510Z,81.24
2023-05-08T05:58:29.776Z,81.15
2023-05-08T05:59:33.089Z,80.92
2023-05-08T06:00:36.171Z,80.66
2023-05-08T06:01:39.380Z,80.64
2023-05-08T06:02:42.872Z,80.86
2023-05-08T06:03:49.093Z,80.52
2023-05-08T06:04:52.484Z,80.45
2023-05-08T06:05:56.454Z,80.22
2023-05-08T06:06:59.490Z,80.24
2023-05-08T06:08:02.396Z,80.37
2023-05-08T06:09:07.092Z,80.54
2023-05-08T06:10:11.095Z,80.07
2023-05-08T06:11:14.153Z,79.88
2023-05-08T06:12:18.538Z,79.23
2023-05-08T06:13:21.475Z,79.40
2023-05-08T06:14:24.707Z,79.21
2023-05-08T06:15:27.567Z,79.21
2023-05-08T06:16:30.826Z,78.94
2023-05-08T06:17:33.977Z,78.46
2023-05-08T06:18:37.592Z,78.79
2023-05-08T06:19:40.560Z,78.61
2023-05-08T06:20:43.513Z,78.21
2023-05-08T06:21:46.422Z,78.36
2023-05-08T06:22:49.248Z,78.37
2023-05-08T06:23:52.304Z,78.01
2023-05-08T06:24:55.704Z,77.77
2023-05-08T06:25:58.801Z,77.69
2023-05-08T06:27:01.770Z,77.27
2023-05-08T06:28:06.708Z,76.70
2023-05-08T06:29:09.619Z,76.64
2023-05-08T06:30:15.655Z,76.69
2023-05-08T06:31:19.248Z,76.68
2023-05-08T06:32:22.628Z,76.75
2023-05-08T06:33:27.150Z,76.43
2023-05-08T06:34:30.121Z,76.15
2023-05-08T06:35:32.958Z,75.68
2023-05-08T06:36:36.430Z,75.91
2023-05-08T06:37:39.272Z,75.97
2023-05-08T06:38:42.157Z,75.87
2023-05-08T06:39:45.026Z,75.41
2023-05-08T06:40:50.191Z,74.68
2023-05-08T06:41:53.019Z,74.74
2023-05-08T06:43:01.078Z,74.49
2023-05-08T06:44:04.344Z,74.34
2023-05-08T06:45:08.919Z,74.24
2023-05-08T06:46:11.994Z,73.97
2023-05-08T06:47:14.951Z,73.50
2023-05-08T06:48:17.830Z,74.12
2023-05-08T06:49:21.122Z,73.89
2023-05-08T06:50:24.092Z,73.24
2023-05-08T06:51:27.244Z,72.92
2023-05-08T06:52:30.113Z,73.15
2023-05-08T06:53:32.963Z,72.98
2023-05-08T06:54:35.903Z,72.84
2023-05-08T06:55:38.889Z,72.87
2023-05-08T06:56:42.225Z,71.84
2023-05-08T06:57:45.126Z,71.41
2023-05-08T06:58:57.066Z,71.04
2023-05-08T07:00:11.693Z,70.61
2023-05-08T07:01:15.200Z,70.40
2023-05-08T07:02:18.297Z,70.09
2023-05-08T07:03:21.316Z,70.16
2023-05-08T07:04:24.667Z,69.06
2023-05-08T07:05:27.702Z,68.93
2023-05-08T07:06:34.628Z,68.30
2023-05-08T07:07:37.558Z,67.28
2023-05-08T07:08:41.331Z,67.75
2023-05-08T07:09:44.204Z,67.37
2023-05-08T07:10:47.074Z,66.49
2023-05-08T07:11:49.913Z,67.29
2023-05-08T07:12:52.948Z,66.80
2023-05-08T07:13:56.103Z,67.46
2023-05-08T07:14:59.601Z,68.16
2023-05-08T07:16:03.540Z,67.96
2023-05-08T07:17:09.328Z,67.68
2023-05-08T07:18:12.234Z,67.17
2023-05-08T07:19:15.244Z,67.29
2023-05-08T07:20:18.208Z,66.91
2023-05-08T07:21:21.416Z,66.64
2023-05-08T07:22:24.297Z,66.79
2023-05-08T07:23:27.629Z,67.41
2023-05-08T07:24:30.644Z,67.23
2023-05-08T07:25:33.737Z,67.01
2023-05-08T07:26:36.605Z,66.12
2023-05-08T07:27:39.534Z,66.62
2023-05-08T07:28:42.370Z,66.17
2023-05-08T07:29:45.202Z,65.64
2023-05-08T07:30:48.075Z,65.87
2023-05-08T07:31:52.201Z,66.09
2023-05-08T07:32:55.152Z,66.59
2023-05-08T07:33:58.133Z,65.61
2023-05-08T07:35:02.983Z,65.68
2023-05-08T07:36:06.070Z,65.74
2023-05-08T07:37:09.110Z,66.15
2023-05-08T07:38:12.078Z,65.82
2023-05-08T07:39:15.100Z,65.83
2023-05-08T07:40:18.096Z,66.24
2023-05-08T07:41:20.958Z,65.68
2023-05-08T07:42:23.798Z,64.02
2023-05-08T07:43:26.667Z,63.23
2023-05-08T07:44:37.562Z,63.13
2023-05-08T07:45:46.479Z,64.17
2023-05-08T07:46:49.548Z,64.90
2023-05-08T07:47:54.799Z,62.92
2023-05-08T07:48:57.659Z,62.98
2023-05-08T07:50:00.763Z,63.41
2023-05-08T07:51:03.843Z,63.86
2023-05-08T07:52:06.814Z,64.21
2023-05-08T07:53:09.664Z,63.99
2023-05-08T07:54:12.479Z,64.01
2023-05-08T07:55:15.627Z,64.04
2023-05-08T07:56:18.931Z,63.81
2023-05-08T07:57:21.892Z,63.64
2023-05-08T07:58:25.225Z,63.47
2023-05-08T07:59:28.110Z,63.60
2023-05-08T08:00:31.533Z,63.42
2023-05-08T08:01:34.576Z,63.59
2023-05-08T08:02:38.820Z,62.94
2023-05-08T08:03:41.988Z,62.35
2023-05-08T08:04:45.661Z,62.51
2023-05-08T08:05:48.622Z,61.29
2023-05-08T08:06:51.450Z,61.08
2023-05-08T08:07:54.335Z,61.48
2023-05-08T08:08:57.311Z,61.81
2023-05-08T08:10:00.770Z,61.95
2023-05-08T08:11:04.010Z,62.01
2023-05-08T08:12:07.228Z,61.26
2023-05-08T08:13:10.136Z,61.62
2023-05-08T08:14:12.979Z,62.28
2023-05-08T08:15:16.125Z,61.50
2023-05-08T08:16:19.550Z,61.55
2023-05-08T08:17:22.954Z,60.86
2023-05-08T08:18:26.071Z,61.47
2023-05-08T08:19:28.905Z,61.59
2023-05-08T08:20:31.765Z,61.40
2023-05-08T08:21:34.721Z,60.94
2023-05-08T08:22:37.966Z,61.12
2023-05-08T08:23:40.939Z,60.90
2023-05-08T08:24:43.753Z,59.45
2023-05-08T08:25:46.745Z,60.49
2023-05-08T08:26:49.613Z,60.92
2023-05-08T08:27:52.511Z,60.60
2023-05-08T08:28:55.388Z,60.86
2023-05-08T08:30:12.987Z,59.78
2023-05-08T08:31:20.329Z,59.51
2023-05-08T08:32:23.362Z,59.83
2023-05-08T08:33:28.800Z,60.55
2023-05-08T08:34:33.720Z,60.38
2023-05-08T08:35:36.698Z,60.53
2023-05-08T08:36:39.897Z,60.43
2023-05-08T08:37:43.254Z,60.66
2023-05-08T08:38:46.138Z,60.60
2023-05-08T08:39:49.444Z,59.75
2023-05-08T08:40:53.230Z,59.62
2023-05-08T08:41:56.677Z,59.66
2023-05-08T08:42:59.572Z,59.22
2023-05-08T08:44:02.411Z,59.55
2023-05-08T08:45:06.942Z,59.70
2023-05-08T08:46:15.495Z,59.65
2023-05-08T08:47:19.488Z,59.13
2023-05-08T08:48:27.459Z,59.40
2023-05-08T08:49:35.736Z,58.05
2023-05-08T08:50:43.956Z,57.81
2023-05-08T08:51:52.682Z,58.43
2023-05-08T08:53:07.451Z,59.01
2023-05-08T08:54:13.319Z,58.83
2023-05-08T08:55:18.456Z,58.83
2023-05-08T08:56:23.908Z,59.35
2023-05-08T08:57:32.866Z,59.40
2023-05-08T08:58:46.852Z,59.20
2023-05-08T08:59:49.957Z,58.81
2023-05-08T09:00:55.191Z,58.72
2023-05-08T09:02:06.314Z,58.53
2023-05-08T09:03:10.025Z,58.73
2023-05-08T09:04:13.292Z,58.70
2023-05-08T09:05:16.517Z,58.42
2023-05-08T09:06:20.144Z,57.38
2023-05-08T09:07:23.102Z,56.41
2023-05-08T09:08:26.118Z,56.80
2023-05-08T09:09:29.289Z,56.76
2023-05-08T09:10:32.118Z,56.65
2023-05-08T09:11:36.357Z,55.16
2023-05-08T09:12:41.164Z,54.69
2023-05-08T09:13:44.094Z,55.09
2023-05-08T09:14:47.036Z,55.60
2023-05-08T09:15:52.925Z,55.38
2023-05-08T09:16:55.825Z,54.70
2023-05-08T09:18:00.836Z,55.52
2023-05-08T09:19:04.699Z,56.33
2023-05-08T09:20:08.878Z,55.73
2023-05-08T09:21:11.944Z,55.96
2023-05-08T09:22:15.760Z,56.20
2023-05-08T09:23:18.629Z,55.83
2023-05-08T09:24:23.086Z,55.65
2023-05-08T09:25:25.869Z,55.30
2023-05-08T09:26:37.072Z,55.41
2023-05-08T09:27:39.879Z,55.47
2023-05-08T09:28:43.139Z,55.29
2023-05-08T09:30:07.987Z,55.27
2023-05-08T09:31:10.810Z,54.72
2023-05-08T09:32:18.630Z,54.46
2023-05-08T09:33:27.824Z,54.17
2023-05-08T09:34:33.206Z,53.54
2023-05-08T09:35:36.828Z,54.14
2023-05-08T09:36:42.303Z,54.51
2023-05-08T09:37:46.472Z,54.45
2023-05-08T09:38:49.320Z,54.22
2023-05-08T09:39:53.009Z,53.83
2023-05-08T09:41:14.693Z,54.10
2023-05-08T09:42:17.593Z,54.01
2023-05-08T09:43:20.696Z,53.78
2023-05-08T09:44:23.417Z,54.03
2023-05-08T09:45:31.737Z,54.27
2023-05-08T09:46:35.602Z,53.85
2023-05-08T09:47:39.672Z,53.87
2023-05-08T09:48:42.752Z,54.12
2023-05-08T09:50:02.084Z,54.03
2023-05-08T09:51:07.723Z,54.03
2023-05-08T09:52:15.983Z,54.28
2023-05-08T09:53:18.859Z,53.92
2023-05-08T09:54:22.453Z,53.94
2023-05-08T09:55:25.199Z,53.96
2023-05-08T09:56:41.240Z,53.42
2023-05-08T09:57:58.560Z,53.36
2023-05-08T09:59:03.658Z,54.53
2023-05-08T10:00:14.678Z,54.64
2023-05-08T10:01:32.836Z,53.70
2023-05-08T10:02:37.290Z,53.45
2023-05-08T10:03:50.299Z,53.32
2023-05-08T10:04:53.084Z,53.10
2023-05-08T10:06:11.825Z,53.02
2023-05-08T10:07:14.654Z,52.80
2023-05-08T10:08:22.473Z,52.76
2023-05-08T10:09:27.397Z,52.25
2023-05-08T10:10:33.646Z,52.33
2023-05-08T10:11:37.280Z,52.39
2023-05-08T10:12:41.617Z,52.40
2023-05-08T10:13:45.182Z,52.42
2023-05-08T10:14:47.934Z,53.02
2023-05-08T10:15:54.821Z,52.40
2023-05-08T10:17:00.919Z,52.16
2023-05-08T10:18:14.683Z,52.43
2023-05-08T10:19:19.750Z,52.09
2023-05-08T10:20:24.257Z,51.95
2023-05-08T10:21:29.577Z,52.20
2023-05-08T10:22:36.996Z,52.01
2023-05-08T10:23:40.369Z,51.76
2023-05-08T10:24:44.314Z,52.29
2023-05-08T10:25:48.793Z,52.48
2023-05-08T10:27:07.368Z,52.12
2023-05-08T10:28:15.605Z,51.67
2023-05-08T10:29:25.550Z,50.74
2023-05-08T10:30:31.184Z,51.26
2023-05-08T10:31:36.664Z,51.18
2023-05-08T10:32:43.947Z,50.73
2023-05-08T10:33:51.277Z,50.64
2023-05-08T10:34:59.151Z,50.10
2023-05-08T10:36:02.215Z,49.89
2023-05-08T10:37:06.190Z,49.20
2023-05-08T10:38:09.599Z,48.88
2023-05-08T10:39:14.794Z,49.57
2023-05-08T10:40:18.785Z,48.96
2023-05-08T10:41:23.208Z,49.09
2023-05-08T10:42:27.716Z,49.40
2023-05-08T10:43:33.635Z,49.10
2023-05-08T10:44:36.981Z,49.01
2023-05-08T10:45:40.301Z,49.38
2023-05-08T10:46:58.587Z,49.31
2023-05-08T10:48:22.414Z,49.27
2023-05-08T10:49:48.704Z,48.95
2023-05-08T10:51:01.193Z,48.55
2023-05-08T10:52:12.560Z,48.21
2023-05-08T10:53:57.300Z,48.12
2023-05-08T10:55:04.453Z,48.05
2023-05-08T10:56:07.392Z,47.76
2023-05-08T10:57:12.291Z,47.66
2023-05-08T10:58:23.880Z,47.08
2023-05-08T10:59:26.629Z,46.40
2023-05-08T11:00:53.385Z,46.49
2023-05-08T11:02:05.515Z,46.46
2023-05-08T11:03:20.092Z,46.45
2023-05-08T11:04:30.550Z,47.00
2023-05-08T11:05:46.499Z,47.76
2023-05-08T11:06:53.070Z,47.81
2023-05-08T11:07:57.768Z,47.55
2023-05-08T11:09:00.997Z,47.23
2023-05-08T11:10:13.139Z,46.90
2023-05-08T11:11:29.194Z,46.19
2023-05-08T11:12:33.939Z,46.94
2023-05-08T11:13:50.302Z,46.95
2023-05-08T11:15:13.445Z,47.28
2023-05-08T11:16:16.605Z,46.31
2023-05-08T11:17:24.088Z,46.74
2023-05-08T11:18:32.559Z,46.65
2023-05-08T11:20:02.382Z,46.73
2023-05-08T11:21:14.480Z,46.21
2023-05-08T11:22:26.020Z,44.91
2023-05-08T11:23:30.180Z,44.59
2023-05-08T11:24:38.320Z,44.67
2023-05-08T11:25:44.655Z,44.31
2023-05-08T11:26:50.067Z,44.78
2023-05-08T11:27:55.883Z,43.61
2023-05-08T11:28:59.385Z,44.31
2023-05-08T11:30:25.835Z,44.71
2023-05-08T11:32:02.162Z,44.26
2023-05-08T11:33:05.329Z,44.51
2023-05-08T11:34:44.371Z,44.59
2023-05-08T11:35:48.727Z,43.18
2023-05-08T11:37:03.607Z,43.69
2023-05-08T11:38:23.602Z,43.47
2023-05-08T11:39:26.607Z,43.48
2023-05-08T11:40:45.934Z,43.67
2023-05-08T11:41:48.626Z,43.87
2023-05-08T11:42:51.432Z,40.90
2023-05-08T11:44:02.976Z,42.83
2023-05-08T11:45:08.355Z,40.46
2023-05-08T11:46:20.163Z,41.64
2023-05-08T11:47:25.728Z,42.07
2023-05-08T11:48:28.975Z,42.19
2023-05-08T11:49:31.707Z,42.13
2023-05-08T11:50:36.105Z,42.74
2023-05-08T11:51:39.636Z,43.41
2023-05-08T11:52:43.497Z,43.57
2023-05-08T11:53:47.076Z,42.99
2023-05-08T11:54:49.854Z,43.05
2023-05-08T11:55:54.079Z,42.70
2023-05-08T11:56:57.574Z,41.86
2023-05-08T11:58:00.334Z,41.83
2023-05-08T11:59:05.069Z,42.05
2023-05-08T12:00:10.039Z,41.68
2023-05-08T12:01:20.147Z,41.63
2023-05-08T12:02:55.507Z,41.71
2023-05-08T12:04:06.292Z,40.64
2023-05-08T12:05:10.732Z,40.50
2023-05-08T12:06:13.800Z,40.64
2023-05-08T12:07:16.745Z,41.02
2023-05-08T12:08:19.627Z,41.60
2023-05-08T12:09:22.487Z,41.58
2023-05-08T12:10:25.436Z,41.63
2023-05-08T12:11:28.193Z,41.25
2023-05-08T12:12:41.357Z,40.69
2023-05-08T12:13:51.162Z,40.47
2023-05-08T12:14:54.038Z,39.81
2023-05-08T12:16:01.368Z,39.82
2023-05-08T12:17:04.233Z,39.37
2023-05-08T12:18:06.976Z,39.59
2023-05-08T12:19:11.723Z,39.87
2023-05-08T12:20:16.300Z,40.11
2023-05-08T12:21:21.285Z,39.67
2023-05-08T12:22:24.093Z,39.40
2023-05-08T12:23:29.369Z,39.81
2023-05-08T12:24:32.575Z,40.24
2023-05-08T12:25:37.353Z,39.35
2023-05-08T12:26:40.083Z,39.64
2023-05-08T12:27:43.344Z,38.82
2023-05-08T12:28:47.266Z,39.25
2023-05-08T12:29:50.054Z,39.43
2023-05-08T12:30:53.854Z,39.13
2023-05-08T12:31:57.106Z,39.30
2023-05-08T12:33:01.011Z,39.60
2023-05-08T12:34:05.271Z,39.39
2023-05-08T12:35:09.363Z,39.13
2023-05-08T12:36:12.209Z,38.58
2023-05-08T12:37:27.855Z,38.59
2023-05-08T12:38:30.679Z,38.29
2023-05-08T12:39:37.577Z,38.50
2023-05-08T12:40:43.377Z,37.79
2023-05-08T12:41:50.486Z,37.23
2023-05-08T12:42:53.862Z,37.04
2023-05-08T12:43:57.241Z,37.10
2023-05-08T12:45:00.124Z,37.71
2023-05-08T12:46:11.432Z,37.84
2023-05-08T12:47:14.409Z,37.14
2023-05-08T12:48:17.334Z,37.47
2023-05-08T12:49:31.381Z,37.83
2023-05-08T12:50:40.151Z,37.74
2023-05-08T12:51:46.183Z,37.67
2023-05-08T12:52:51.565Z,37.72
2023-05-08T12:53:54.705Z,37.60
2023-05-08T12:54:57.449Z,37.03
2023-05-08T12:56:09.665Z,36.69
2023-05-08T12:57:14.554Z,36.42
2023-05-08T12:58:17.487Z,36.75
2023-05-08T12:59:28.975Z,36.87
2023-05-08T13:00:52.190Z,36.23
2023-05-08T13:01:54.960Z,35.70
2023-05-08T13:02:57.839Z,36.20
2023-05-08T13:04:03.175Z,36.33
2023-05-08T13:05:06.800Z,36.03
2023-05-08T13:06:21.292Z,36.21
2023-05-08T13:07:24.176Z,36.12
2023-05-08T13:08:35.342Z,36.02
2023-05-08T13:09:39.123Z,35.46
2023-05-08T13:10:55.739Z,34.91
2023-05-08T13:11:59.079Z,35.39
2023-05-08T13:13:01.976Z,35.10
2023-05-08T13:14:04.752Z,35.10
2023-05-08T13:15:08.173Z,35.27
2023-05-08T13:16:11.254Z,35.94
2023-05-08T13:17:18.374Z,35.48
2023-05-08T13:18:24.205Z,35.73
2023-05-08T13:19:27.711Z,35.50
2023-05-08T13:20:30.480Z,35.98
2023-05-08T13:21:33.332Z,35.79
2023-05-08T13:22:36.107Z,35.39
2023-05-08T13:23:39.953Z,34.84
2023-05-08T13:24:43.068Z,34.53
2023-05-08T13:25:45.892Z,34.99
2023-05-08T13:26:48.678Z,35.24
2023-05-08T13:27:51.389Z,36.03
2023-05-08T13:28:56.043Z,36.16
2023-05-08T13:29:59.341Z,36.65
2023-05-08T13:31:02.066Z,36.63
2023-05-08T13:32:04.944Z,37.09
2023-05-08T13:33:08.049Z,36.80
2023-05-08T13:34:10.974Z,36.33
2023-05-08T13:35:13.824Z,36.72
2023-05-08T13:36:16.634Z,36.86
2023-05-08T13:37:19.572Z,36.86
2023-05-08T13:38:22.338Z,36.67
2023-05-08T13:39:25.572Z,36.74
2023-05-08T13:40:28.565Z,36.99
2023-05-08T13:41:31.652Z,37.27
2023-05-08T13:42:34.517Z,36.64
2023-05-08T13:43:37.650Z,36.68
2023-05-08T13:44:40.756Z,36.73
2023-05-08T13:45:44.318Z,36.89
2023-05-08T13:46:48.534Z,37.00
2023-05-08T13:47:51.484Z,37.20
2023-05-08T13:48:54.244Z,37.15
2023-05-08T13:49:57.081Z,36.87
2023-05-08T13:50:59.959Z,36.99
2023-05-08T13:52:02.776Z,37.03
2023-05-08T13:53:06.230Z,36.85
2023-05-08T13:54:09.107Z,37.16
2023-05-08T13:55:13.692Z,36.99
2023-05-08T13:56:16.834Z,36.84
2023-05-08T13:57:19.604Z,37.23
2023-05-08T13:58:22.606Z,37.39
2023-05-08T13:59:25.822Z,36.89
2023-05-08T14:00:28.680Z,36.87
2023-05-08T14:01:31.575Z,36.94
2023-05-08T14:02:34.757Z,36.43
2023-05-08T14:03:37.818Z,36.19
2023-05-08T14:04:40.893Z,36.65
2023-05-08T14:05:43.755Z,37.04
2023-05-08T14:06:46.600Z,37.04
2023-05-08T14:07:49.457Z,37.04
2023-05-08T14:10:17.101Z,36.96
2023-05-08T14:11:20.054Z,37.08
2023-05-08T14:12:22.804Z,36.50
2023-05-08T14:12:42.858Z,37.13
2023-05-08T14:13:25.650Z,36.68
2023-05-08T14:14:28.524Z,37.13